Pagina principale
METAR-TAF:

METAR-TAF

Aeroporti :

Taba, Egitto

latitudine: 29-35-57N, longitudine: 034-46-36E, altezza: 749 m

METAR: mancante

Ora: 13:16 (11:16 UTC)

Previsione

Il bollettino è stato emesso 6 ore e 16 minuti fa, alle 05:00 UTC
Previsione valida dal 23 alle 06 UTC al 24 alle 12 UTC
Vento 15 kt da nord/nord-est
Visibilità 10 km o più
nessuna nube inferiore a 1500 m e nessun cumulonembo

TAF: HETB 230500Z 2306/2412 03015KT CAVOK

Osservazioni e previsioni meteorologiche di più di 4000 aeroporti (messaggi METAR e TAF).

Le stazioni disponibili sono rappresentate dai dischi gialli e rossi sulla carta.

Puntare il mouse per vedere il nome della stazione.

Clicca sopra per visualizzare le osservazioni e previsioni meteorologiche.

Per cambiare la mappa : fare clic sui pulsanti verdi con una croce nera per ingrandire, il pulsante verde con un trattino per diminuire, o sulla freccia verde per le mappe adiacenti.


METAR-TAF: